Time;durP1;ratioP1;P1;durP2;ratioP2;P2;SDS_P1;SDS_P2;PMS_P1;PMS_P2;Temp;Humidity;BMP_temperature;BMP_pressure;BME280_temperature;BME280_humidity;BME280_pressure;Samples;Min_cycle;Max_cycle;Signal;HPM_P1;HPM_P2
2022/04/02 00:00:37;;;;;;;2.97;1.70;;;6.10;69.60;;;;;;5995612;29;20037;-71
2022/04/02 00:03:38;;;;;;;2.53;1.80;;;6.10;69.40;;;;;;6007664;29;20042;-71
2022/04/02 00:06:40;;;;;;;3.00;1.48;;;6.10;69.60;;;;;;6027661;29;20120;-70
2022/04/02 00:09:40;;;;;;;3.22;1.58;;;6.10;69.40;;;;;;6024356;29;20056;-70
2022/04/02 00:12:45;;;;;;;3.15;1.85;;;6.20;69.40;;;;;;6024285;29;20041;-69
2022/04/02 00:15:46;;;;;;;3.47;1.65;;;6.20;69.20;;;;;;6009526;29;20429;-70
2022/04/02 00:18:49;;;;;;;2.60;1.35;;;6.20;69.20;;;;;;6004996;29;20050;-70
2022/04/02 00:21:50;;;;;;;3.38;1.45;;;6.20;69.10;;;;;;6004635;29;20364;-69
2022/04/02 00:24:51;;;;;;;1.35;1.13;;;6.20;69.10;;;;;;6007292;29;20042;-70
2022/04/02 00:27:52;;;;;;;2.28;1.25;;;6.20;69.20;;;;;;5993458;29;20341;-70
2022/04/02 00:30:53;;;;;;;1.40;0.95;;;6.20;69.10;;;;;;6019707;29;20113;-70
2022/04/02 00:33:54;;;;;;;1.08;0.88;;;6.30;69.00;;;;;;6004587;29;20051;-69
2022/04/02 00:36:55;;;;;;;1.10;0.70;;;6.30;68.90;;;;;;6022806;29;20137;-71
2022/04/02 00:39:56;;;;;;;1.08;0.77;;;6.30;68.90;;;;;;6002319;29;20053;-70
2022/04/02 00:42:57;;;;;;;1.83;0.73;;;6.30;69.00;;;;;;6004181;29;20133;-71
2022/04/02 00:46:07;;;;;;;1.10;0.90;;;6.30;68.90;;;;;;5987100;29;20540;-71
2022/04/02 00:49:09;;;;;;;1.40;1.00;;;6.20;68.60;;;;;;6016430;29;20077;-70
2022/04/02 00:52:10;;;;;;;1.95;1.30;;;6.20;68.70;;;;;;6023149;29;20037;-70
2022/04/02 00:55:12;;;;;;;2.00;1.23;;;6.20;68.80;;;;;;6019406;29;20364;-70
2022/04/02 00:58:14;;;;;;;1.73;1.30;;;6.10;69.00;;;;;;6018531;29;20037;-70
2022/04/02 01:01:16;;;;;;;1.08;0.98;;;6.10;69.00;;;;;;6001932;29;20420;-71
2022/04/02 01:04:20;;;;;;;1.08;0.77;;;6.10;69.00;;;;;;6004910;29;20113;-71
2022/04/02 01:07:22;;;;;;;0.75;0.75;;;6.00;69.00;;;;;;5995133;29;20500;-71
2022/04/02 01:10:23;;;;;;;1.33;0.77;;;6.00;69.20;;;;;;5988050;29;20042;-71
2022/04/02 01:13:25;;;;;;;1.73;1.02;;;5.90;69.30;;;;;;5989357;29;20467;-70
2022/04/02 01:16:27;;;;;;;1.38;0.90;;;5.90;69.40;;;;;;5997195;29;20129;-70
2022/04/02 01:19:36;;;;;;;1.27;0.90;;;5.80;69.50;;;;;;6005095;29;20042;-70
2022/04/02 01:22:47;;;;;;;1.63;0.77;;;5.80;69.80;;;;;;6017861;29;20034;-70
2022/04/02 01:25:48;;;;;;;1.23;1.13;;;5.70;69.80;;;;;;6004230;29;20568;-70
2022/04/02 01:29:01;;;;;;;0.98;0.85;;;5.70;69.90;;;;;;6006004;29;20034;-71
2022/04/02 01:32:11;;;;;;;1.40;1.30;;;5.70;70.00;;;;;;6002150;29;20049;-71
2022/04/02 01:35:14;;;;;;;3.33;1.20;;;5.70;70.10;;;;;;6004789;29;20041;-71
2022/04/02 01:38:24;;;;;;;2.67;1.58;;;5.60;70.20;;;;;;5988920;29;20072;-72
2022/04/02 01:41:25;;;;;;;2.08;1.50;;;5.60;70.40;;;;;;6002357;29;20421;-72
2022/04/02 01:44:27;;;;;;;2.50;1.30;;;5.50;70.60;;;;;;6006871;29;20034;-70
2022/04/02 01:47:28;;;;;;;1.77;1.45;;;5.50;70.70;;;;;;6004110;29;20057;-72
2022/04/02 01:50:32;;;;;;;1.80;1.48;;;5.50;70.80;;;;;;6004033;29;20037;-71
2022/04/02 01:53:34;;;;;;;1.65;1.48;;;5.50;70.90;;;;;;6006581;29;20064;-72
2022/04/02 01:56:39;;;;;;;2.20;1.55;;;5.50;71.00;;;;;;5988091;29;20042;-70
2022/04/02 01:59:44;;;;;;;4.57;1.92;;;5.40;71.20;;;;;;6004074;29;20118;-70
2022/04/02 02:02:47;;;;;;;3.35;2.38;;;5.40;71.20;;;;;;6001487;29;20102;-70
2022/04/02 02:05:48;;;;;;;4.55;2.08;;;5.40;71.30;;;;;;6004584;29;20417;-70
2022/04/02 02:08:49;;;;;;;3.20;1.98;;;5.40;71.50;;;;;;6003545;29;20495;-70
2022/04/02 02:12:18;;;;;;;3.00;2.10;;;5.40;71.50;;;;;;6011829;29;20416;-71
2022/04/02 02:15:41;;;;;;;5.30;2.25;;;5.40;71.50;;;;;;6015049;29;20460;-71
2022/04/02 02:18:42;;;;;;;4.88;2.80;;;5.40;71.50;;;;;;5985342;29;20143;-71
2022/04/02 02:21:43;;;;;;;3.92;2.45;;;5.30;71.50;;;;;;6002552;29;20034;-71
2022/04/02 02:24:51;;;;;;;4.35;1.92;;;5.40;71.70;;;;;;6000344;29;20045;-71
2022/04/02 02:27:53;;;;;;;4.68;2.55;;;5.30;71.50;;;;;;6003279;29;20049;-71
2022/04/02 02:30:58;;;;;;;7.55;3.35;;;5.40;71.50;;;;;;6011855;29;20341;-71
2022/04/02 02:37:30;;;;;;;7.65;3.80;;;5.30;71.70;;;;;;5998168;29;20088;-71
2022/04/02 02:40:39;;;;;;;5.28;3.05;;;5.20;71.80;;;;;;5997704;29;20353;-71
2022/04/02 02:43:41;;;;;;;4.88;3.05;;;5.20;72.00;;;;;;5984436;29;20318;-70
2022/04/02 02:46:50;;;;;;;4.95;3.53;;;5.20;72.00;;;;;;5985203;29;20421;-70
2022/04/02 02:49:58;;;;;;;4.32;2.10;;;5.20;72.10;;;;;;5971526;29;20079;-70
2022/04/02 02:53:05;;;;;;;6.10;3.10;;;5.20;72.30;;;;;;6003242;29;20038;-70
2022/04/02 02:56:06;;;;;;;9.70;3.50;;;5.20;72.10;;;;;;5998136;29;20048;-70
2022/04/02 02:59:07;;;;;;;8.05;4.72;;;5.20;72.10;;;;;;6014084;29;20317;-70
2022/04/02 03:02:11;;;;;;;7.43;3.90;;;5.20;71.90;;;;;;6015388;29;20378;-73
2022/04/02 03:05:17;;;;;;;10.23;5.00;;;5.20;71.60;;;;;;5983847;29;20034;-71
2022/04/02 03:08:19;;;;;;;10.13;4.78;;;5.20;71.60;;;;;;5986725;29;20065;-70
2022/04/02 03:11:28;;;;;;;8.93;4.60;;;5.20;71.40;;;;;;5964325;29;20060;-70
2022/04/02 03:14:30;;;;;;;10.10;5.30;;;5.20;71.20;;;;;;5980501;29;20454;-72
2022/04/02 03:17:32;;;;;;;8.40;4.60;;;5.20;71.10;;;;;;5976488;29;20501;-70
2022/04/02 03:20:35;;;;;;;7.50;4.25;;;5.20;71.10;;;;;;5977331;29;20114;-69
2022/04/02 03:23:37;;;;;;;7.65;4.32;;;5.20;71.10;;;;;;5978350;29;20053;-72
2022/04/02 03:26:38;;;;;;;6.45;3.80;;;5.20;70.90;;;;;;5975852;29;20142;-71
2022/04/02 03:29:48;;;;;;;9.70;4.75;;;5.20;71.00;;;;;;5978102;29;20121;-71
2022/04/02 03:32:52;;;;;;;10.02;4.95;;;5.20;71.00;;;;;;5962965;29;20031;-71
2022/04/02 03:35:53;;;;;;;12.45;6.28;;;5.20;71.10;;;;;;5963804;29;20049;-72
2022/04/02 03:38:56;;;;;;;10.10;4.30;;;5.20;71.20;;;;;;5976028;29;20401;-71
2022/04/02 03:41:59;;;;;;;12.25;5.13;;;5.20;71.30;;;;;;5976141;29;20465;-71
2022/04/02 03:45:00;;;;;;;7.22;4.78;;;5.20;72.10;;;;;;5976568;29;20046;-70
2022/04/02 03:48:01;;;;;;;8.13;5.03;;;5.20;71.40;;;;;;5979216;29;20045;-70
2022/04/02 03:51:07;;;;;;;10.10;4.85;;;5.10;71.40;;;;;;5963609;29;20034;-70
2022/04/02 03:54:08;;;;;;;9.80;5.40;;;5.10;71.40;;;;;;5978888;29;20100;-70
2022/04/02 03:57:13;;;;;;;9.30;5.55;;;5.10;71.40;;;;;;5977200;29;20098;-72
2022/04/02 04:00:16;;;;;;;10.32;5.72;;;5.10;71.60;;;;;;5976733;29;20117;-70
2022/04/02 04:03:25;;;;;;;10.60;5.30;;;5.00;71.70;;;;;;5981219;29;20689;-72
2022/04/02 04:06:28;;;;;;;7.63;5.00;;;4.90;72.00;;;;;;5980697;29;20041;-71
2022/04/02 04:09:32;;;;;;;10.48;4.72;;;4.80;72.30;;;;;;5992350;29;20094;-71
2022/04/02 04:12:34;;;;;;;9.80;5.13;;;4.80;72.60;;;;;;5998228;29;20102;-71
2022/04/02 04:15:37;;;;;;;9.48;4.65;;;4.70;72.80;;;;;;6003309;29;20102;-71
2022/04/02 04:18:40;;;;;;;11.07;5.55;;;4.70;73.10;;;;;;6004852;29;20037;-71
2022/04/02 04:21:43;;;;;;;11.02;5.20;;;4.70;73.30;;;;;;6007333;29;20042;-70
2022/04/02 04:24:45;;;;;;;9.30;5.43;;;4.70;73.30;;;;;;6005150;29;20401;-71
2022/04/02 04:27:46;;;;;;;10.57;5.65;;;4.70;73.50;;;;;;6006164;29;20038;-71
2022/04/02 04:30:50;;;;;;;11.85;5.35;;;4.70;73.50;;;;;;6000774;29;20100;-71
2022/04/02 04:33:51;;;;;;;10.88;5.95;;;4.70;73.50;;;;;;6001585;29;20647;-71
2022/04/02 04:36:52;;;;;;;9.88;5.65;;;4.70;73.50;;;;;;6004622;29;20041;-71
2022/04/02 04:39:53;;;;;;;11.25;5.43;;;4.70;73.60;;;;;;6021505;29;20043;-71
2022/04/02 04:42:55;;;;;;;11.52;6.25;;;4.70;73.80;;;;;;6004999;29;20041;-72
2022/04/02 04:46:05;;;;;;;8.88;4.63;;;4.70;73.80;;;;;;5989067;29;20033;-71
2022/04/02 04:49:08;;;;;;;7.97;4.93;;;4.70;73.80;;;;;;6001660;29;20085;-71
2022/04/02 04:52:11;;;;;;;14.43;5.45;;;4.70;73.80;;;;;;6001963;29;20033;-73
2022/04/02 04:55:12;;;;;;;6.82;4.15;;;4.70;73.60;;;;;;6005435;29;20455;-71
2022/04/02 04:58:14;;;;;;;8.88;4.43;;;4.70;73.50;;;;;;6004913;29;20467;-71
2022/04/02 05:01:16;;;;;;;6.43;3.60;;;4.70;73.40;;;;;;6003369;29;20038;-71
2022/04/02 05:04:18;;;;;;;8.55;4.75;;;4.70;73.40;;;;;;6017889;29;20064;-71
2022/04/02 05:07:22;;;;;;;8.13;4.72;;;4.70;73.30;;;;;;6004214;29;20112;-72
2022/04/02 05:10:28;;;;;;;7.35;4.43;;;4.70;73.30;;;;;;6018501;29;20042;-72
2022/04/02 05:13:32;;;;;;;8.65;4.82;;;4.70;73.10;;;;;;6001508;29;20144;-72
2022/04/02 05:16:34;;;;;;;6.05;3.85;;;4.70;73.00;;;;;;6004616;29;20427;-73
2022/04/02 05:19:37;;;;;;;8.32;4.13;;;4.60;72.90;;;;;;6004062;29;20089;-72
2022/04/02 05:22:43;;;;;;;7.15;4.53;;;4.60;72.90;;;;;;6002421;29;20046;-72
2022/04/02 05:25:45;;;;;;;6.53;4.07;;;4.60;73.10;;;;;;5987676;29;20033;-73
2022/04/02 05:28:47;;;;;;;7.32;4.43;;;4.60;73.20;;;;;;5986854;29;20353;-72
2022/04/02 05:31:48;;;;;;;9.38;4.43;;;4.60;73.20;;;;;;6019940;29;20125;-73
2022/04/02 05:34:49;;;;;;;9.73;4.50;;;4.60;73.10;;;;;;6017621;29;20124;-74
2022/04/02 05:37:50;;;;;;;6.45;4.05;;;4.60;73.10;;;;;;6003080;29;20048;-70
2022/04/02 05:40:51;;;;;;;8.32;4.00;;;4.60;73.10;;;;;;5989509;29;20074;-70
2022/04/02 05:43:53;;;;;;;6.15;3.80;;;4.60;73.00;;;;;;6005820;29;20042;-70
2022/04/02 05:46:54;;;;;;;6.63;4.18;;;4.60;72.90;;;;;;6001585;29;20079;-71
2022/04/02 05:49:55;;;;;;;7.10;3.50;;;4.60;72.90;;;;;;6017872;29;20125;-72
2022/04/02 05:52:56;;;;;;;8.73;4.82;;;4.70;72.80;;;;;;6016523;29;20050;-72
2022/04/02 05:55:57;;;;;;;8.07;4.88;;;4.70;72.70;;;;;;6017799;29;20037;-72
2022/04/02 05:58:59;;;;;;;8.65;5.28;;;4.70;72.60;;;;;;5987477;29;20048;-73
2022/04/02 06:02:00;;;;;;;7.72;4.72;;;4.70;72.60;;;;;;6002569;29;20471;-74
2022/04/02 06:05:01;;;;;;;8.23;5.10;;;4.70;72.60;;;;;;5989028;29;20073;-72
2022/04/02 06:08:02;;;;;;;6.45;4.15;;;4.70;72.60;;;;;;6018340;29;20041;-72
2022/04/02 06:11:08;;;;;;;6.55;3.92;;;4.70;72.40;;;;;;5999683;29;20045;-73
2022/04/02 06:14:10;;;;;;;4.32;2.83;;;4.70;72.40;;;;;;6015599;29;20046;-72
2022/04/02 06:17:11;;;;;;;5.63;3.50;;;4.70;72.40;;;;;;5999130;29;20030;-72
2022/04/02 06:20:13;;;;;;;5.68;3.63;;;4.60;72.60;;;;;;6003493;29;20534;-73
2022/04/02 06:23:15;;;;;;;3.25;2.67;;;4.50;72.80;;;;;;6014342;29;20061;-73
2022/04/02 06:26:16;;;;;;;3.75;2.90;;;4.50;73.10;;;;;;6016080;29;20117;-73
2022/04/02 06:29:17;;;;;;;5.82;2.83;;;4.50;73.30;;;;;;6017940;29;20040;-73
2022/04/02 06:32:20;;;;;;;7.22;3.75;;;4.50;73.40;;;;;;6012190;29;20069;-71
2022/04/02 06:35:21;;;;;;;4.32;3.05;;;4.50;73.60;;;;;;5996479;29;20105;-71
2022/04/02 06:38:22;;;;;;;3.75;2.58;;;4.40;73.70;;;;;;6001360;29;20041;-73
2022/04/02 06:41:23;;;;;;;8.02;3.38;;;4.40;74.00;;;;;;6000447;29;20050;-73
2022/04/02 06:44:24;;;;;;;4.43;3.15;;;4.40;74.10;;;;;;6001637;29;20132;-73
2022/04/02 06:47:27;;;;;;;9.35;4.55;;;4.40;74.20;;;;;;6001408;29;20101;-72
2022/04/02 06:50:28;;;;;;;3.90;2.58;;;4.40;74.30;;;;;;6017305;29;20037;-72
2022/04/02 06:53:29;;;;;;;3.58;2.42;;;4.30;74.30;;;;;;6002007;29;20045;-73
2022/04/02 06:56:30;;;;;;;6.20;3.30;;;4.30;74.60;;;;;;6001058;29;20341;-73
2022/04/02 06:59:31;;;;;;;4.97;3.30;;;4.30;74.70;;;;;;6020463;29;20478;-72
2022/04/02 07:02:32;;;;;;;3.72;2.78;;;4.30;74.80;;;;;;6001848;29;20050;-72
2022/04/02 07:05:32;;;;;;;7.68;2.95;;;4.30;75.00;;;;;;5999920;29;20046;-74
2022/04/02 07:08:36;;;;;;;3.55;2.38;;;4.30;75.00;;;;;;6000607;29;20041;-74
2022/04/02 07:11:37;;;;;;;4.25;2.88;;;4.30;75.10;;;;;;6015221;29;20049;-74
2022/04/02 07:14:38;;;;;;;4.68;3.10;;;4.30;75.30;;;;;;6020009;29;20060;-75
2022/04/02 07:17:39;;;;;;;6.72;4.10;;;4.30;75.20;;;;;;5997844;29;20129;-76
2022/04/02 07:20:41;;;;;;;4.15;2.85;;;4.30;75.30;;;;;;6002090;29;20222;-76
2022/04/02 07:23:45;;;;;;;4.38;2.92;;;4.30;75.30;;;;;;5985211;29;20134;-77
2022/04/02 07:26:48;;;;;;;3.08;2.42;;;4.30;75.30;;;;;;6013212;29;20429;-79
2022/04/02 07:29:51;;;;;;;6.75;3.78;;;4.30;75.30;;;;;;6000671;29;20038;-79
2022/04/02 07:32:52;;;;;;;4.65;2.65;;;4.30;75.10;;;;;;6018284;29;20062;-77
2022/04/02 07:36:22;;;;;;;3.22;2.40;;;4.30;75.10;;;;;;6021551;29;20069;-76
2022/04/02 07:39:42;;;;;;;6.63;3.22;;;4.30;75.20;;;;;;5992418;29;20081;-76
2022/04/02 07:42:58;;;;;;;3.22;2.35;;;4.30;75.10;;;;;;6017216;29;20117;-76
2022/04/02 07:46:04;;;;;;;4.65;3.05;;;4.30;75.10;;;;;;6015616;29;20456;-76
2022/04/02 07:49:09;;;;;;;5.13;2.65;;;4.40;75.20;;;;;;5977152;29;20082;-75
2022/04/02 07:52:13;;;;;;;3.20;2.83;;;4.40;75.20;;;;;;6002694;29;20037;-75
2022/04/02 07:55:15;;;;;;;6.20;3.17;;;4.40;75.20;;;;;;6020275;29;20041;-74
2022/04/02 07:58:24;;;;;;;2.50;2.25;;;4.40;75.20;;;;;;5986630;29;20064;-74
2022/04/02 08:01:25;;;;;;;5.78;3.35;;;4.40;75.20;;;;;;6000275;29;20109;-74
2022/04/02 08:04:28;;;;;;;3.55;2.20;;;4.50;75.10;;;;;;6003879;29;20066;-74
2022/04/02 08:07:30;;;;;;;5.32;2.67;;;4.50;75.10;;;;;;6005170;29;20686;-77
2022/04/02 08:10:31;;;;;;;4.78;2.03;;;4.50;75.10;;;;;;6001146;29;20102;-76
2022/04/02 08:13:32;;;;;;;5.65;2.83;;;4.50;75.10;;;;;;6000412;29;20377;-76
2022/04/02 08:16:37;;;;;;;3.08;2.60;;;4.60;75.00;;;;;;6000863;29;20040;-77
2022/04/02 08:19:40;;;;;;;2.72;2.00;;;4.60;74.80;;;;;;6019575;29;20593;-76
2022/04/02 08:22:42;;;;;;;2.97;1.90;;;4.60;74.80;;;;;;6002251;29;20113;-78
2022/04/02 08:25:56;;;;;;;3.25;2.20;;;4.60;74.80;;;;;;6001419;29;20050;-77
2022/04/02 08:28:56;;;;;;;3.83;2.67;;;4.70;74.70;;;;;;6017741;29;20117;-78
2022/04/02 08:32:16;;;;;;;3.90;2.40;;;4.70;74.50;;;;;;6002700;29;20037;-78
2022/04/02 08:35:25;;;;;;;3.75;2.63;;;4.80;74.60;;;;;;6015273;29;20115;-78
2022/04/02 08:39:01;;;;;;;3.60;2.63;;;4.80;74.40;;;;;;5995999;29;20115;-80
2022/04/02 08:42:05;;;;;;;4.78;2.70;;;4.70;74.10;;;;;;6005943;29;20037;-80
2022/04/02 08:45:08;;;;;;;7.35;2.70;;;4.90;74.20;;;;;;5998907;29;20045;-78
2022/04/02 08:48:25;;;;;;;2.17;1.80;;;4.90;74.10;;;;;;6000551;29;20112;-79
2022/04/02 08:51:45;;;;;;;5.63;3.22;;;4.90;73.70;;;;;;6015028;29;20125;-77
2022/04/02 08:55:10;;;;;;;4.90;3.03;;;5.00;73.70;;;;;;6000509;29;20053;-78
2022/04/02 08:58:34;;;;;;;4.47;2.47;;;5.00;73.60;;;;;;6000269;29;20046;-78
2022/04/02 09:01:42;;;;;;;3.80;2.55;;;5.00;73.60;;;;;;5987323;29;20160;-77
2022/04/02 09:04:59;;;;;;;3.78;2.42;;;5.10;73.60;;;;;;6002385;29;20470;-75
2022/04/02 09:08:04;;;;;;;4.82;2.92;;;5.10;73.40;;;;;;5998124;29;20049;-76
2022/04/02 09:11:13;;;;;;;6.03;2.60;;;5.20;73.20;;;;;;5998526;29;20053;-75
2022/04/02 09:14:36;;;;;;;7.50;3.67;;;5.20;72.90;;;;;;6003647;29;20102;-75
2022/04/02 09:17:57;;;;;;;4.22;2.47;;;5.20;72.70;;;;;;6000701;29;20511;-74
2022/04/02 09:21:05;;;;;;;5.45;3.22;;;5.20;72.70;;;;;;5999869;29;20056;-74
2022/04/02 09:24:30;;;;;;;6.35;3.78;;;5.20;72.50;;;;;;6016397;29;20069;-74
2022/04/02 09:28:05;;;;;;;6.07;3.25;;;5.20;72.50;;;;;;5999288;29;20148;-73
2022/04/02 09:31:25;;;;;;;7.13;3.40;;;5.30;72.60;;;;;;6013113;29;20050;-72
2022/04/02 09:34:31;;;;;;;7.93;3.38;;;5.20;72.50;;;;;;6013954;29;20083;-73
2022/04/02 09:37:59;;;;;;;5.57;3.05;;;5.20;72.60;;;;;;6000308;29;20072;-73
2022/04/02 09:41:44;;;;;;;9.48;3.35;;;5.20;72.70;;;;;;5991028;29;20050;-74
2022/04/02 09:45:20;;;;;;;5.07;3.30;;;5.20;72.80;;;;;;5995775;29;20041;-74
2022/04/02 09:48:27;;;;;;;10.57;3.25;;;5.30;72.90;;;;;;6018279;29;20562;-73
2022/04/02 09:51:34;;;;;;;4.90;3.25;;;5.30;73.00;;;;;;6012740;29;20039;-73
2022/04/02 09:54:51;;;;;;;6.22;3.53;;;5.30;73.00;;;;;;5999696;29;20125;-72
2022/04/02 09:58:22;;;;;;;5.60;2.80;;;5.40;72.80;;;;;;5995730;29;20448;-73
2022/04/02 10:01:48;;;;;;;5.55;2.63;;;5.40;72.80;;;;;;5992098;29;20046;-72
2022/04/02 10:04:54;;;;;;;7.95;3.65;;;5.40;72.80;;;;;;6008593;29;20526;-71
2022/04/02 10:08:04;;;;;;;7.93;4.07;;;5.50;72.70;;;;;;6013864;29;20117;-72
2022/04/02 10:11:08;;;;;;;4.70;3.15;;;5.40;72.60;;;;;;6008939;29;20527;-72
2022/04/02 10:14:09;;;;;;;6.30;3.58;;;5.40;72.90;;;;;;6012427;29;20037;-72
2022/04/02 10:17:13;;;;;;;8.82;4.60;;;5.40;72.80;;;;;;5999885;29;20424;-73
2022/04/02 10:20:17;;;;;;;6.28;3.35;;;5.50;72.90;;;;;;5980421;29;20075;-72
2022/04/02 10:23:22;;;;;;;7.32;3.78;;;5.50;73.10;;;;;;6012475;29;20129;-72
2022/04/02 10:26:23;;;;;;;8.38;3.90;;;5.50;72.90;;;;;;6017861;29;20061;-74
2022/04/02 10:29:57;;;;;;;6.03;2.65;;;5.60;73.00;;;;;;6014120;29;20059;-72
2022/04/02 10:33:46;;;;;;;6.50;3.78;;;5.60;73.00;;;;;;6010471;29;20057;-71
2022/04/02 10:36:22;;;;;;;7.25;3.90;;;5.60;73.00;;;;;;6003202;29;20090;-74
2022/04/02 10:39:24;;;;;;;3.90;2.63;;;5.50;72.80;;;;;;6013299;29;20118;-73
2022/04/02 10:42:34;;;;;;;6.88;3.92;;;5.50;72.90;;;;;;5998612;29;20053;-72
2022/04/02 10:45:39;;;;;;;6.97;2.85;;;5.50;72.80;;;;;;5996661;29;20832;-73
2022/04/02 10:48:53;;;;;;;5.47;3.90;;;5.50;73.10;;;;;;5997467;29;20041;-72
2022/04/02 10:51:55;;;;;;;6.40;3.75;;;5.50;73.30;;;;;;6010109;29;20412;-72
2022/04/02 10:54:56;;;;;;;5.43;3.05;;;5.50;73.20;;;;;;5999137;29;20475;-71
2022/04/02 10:57:59;;;;;;;7.65;3.53;;;5.60;73.10;;;;;;6012780;29;20038;-73
2022/04/02 11:01:03;;;;;;;7.65;4.18;;;5.50;73.00;;;;;;6012568;29;20040;-73
2022/04/02 11:04:13;;;;;;;6.97;3.78;;;5.60;73.20;;;;;;5993275;29;20074;-72
2022/04/02 11:07:29;;;;;;;7.20;3.58;;;5.60;73.20;;;;;;6012260;29;20053;-73
2022/04/02 11:10:33;;;;;;;6.25;3.30;;;5.60;73.00;;;;;;5983063;29;20159;-73
2022/04/02 11:13:34;;;;;;;7.20;3.47;;;5.60;73.00;;;;;;5996818;29;20142;-72
2022/04/02 11:16:40;;;;;;;6.90;3.47;;;5.60;73.00;;;;;;5997130;29;20356;-73
2022/04/02 11:19:56;;;;;;;6.57;3.35;;;5.60;72.90;;;;;;6018410;29;20042;-73
2022/04/02 11:23:13;;;;;;;9.20;3.50;;;5.60;73.00;;;;;;5998891;29;20417;-72
2022/04/02 11:26:19;;;;;;;6.80;3.38;;;5.60;73.00;;;;;;6001800;29;20421;-73
2022/04/02 11:29:23;;;;;;;6.05;3.55;;;5.60;73.00;;;;;;6014930;29;20034;-73
2022/04/02 11:32:25;;;;;;;5.72;3.03;;;5.70;73.10;;;;;;5998034;29;20041;-71
2022/04/02 11:35:29;;;;;;;6.05;3.45;;;5.70;73.10;;;;;;6015048;29;20804;-73
2022/04/02 11:39:01;;;;;;;5.88;2.92;;;5.80;73.10;;;;;;6000718;29;20081;-74
2022/04/02 11:42:03;;;;;;;6.15;3.35;;;5.70;72.80;;;;;;5991891;29;20109;-73
2022/04/02 11:45:11;;;;;;;6.20;3.78;;;5.70;72.80;;;;;;6009505;29;20481;-73
2022/04/02 11:48:14;;;;;;;6.65;3.30;;;5.70;72.80;;;;;;5998271;29;20121;-73
2022/04/02 11:51:25;;;;;;;5.45;3.05;;;5.50;72.80;;;;;;6009969;29;20448;-73
2022/04/02 11:54:26;;;;;;;6.47;3.08;;;5.50;73.10;;;;;;6012705;29;20042;-72
2022/04/02 11:57:27;;;;;;;6.10;3.55;;;5.50;73.40;;;;;;6013875;29;20095;-72
2022/04/02 12:00:31;;;;;;;7.82;3.22;;;5.50;73.60;;;;;;5999371;29;20052;-72
2022/04/02 12:03:34;;;;;;;6.50;3.83;;;5.60;73.50;;;;;;6013786;29;20042;-72
2022/04/02 12:06:36;;;;;;;5.28;2.78;;;5.60;73.10;;;;;;5998342;29;20046;-73
2022/04/02 12:09:50;;;;;;;4.57;3.25;;;5.60;73.20;;;;;;5993227;29;20060;-72
2022/04/02 12:12:53;;;;;;;7.53;3.63;;;5.60;73.20;;;;;;6015315;29;20042;-73
2022/04/02 12:16:04;;;;;;;6.13;3.53;;;5.70;73.30;;;;;;5997641;29;20038;-71
2022/04/02 12:19:09;;;;;;;5.88;3.35;;;5.70;73.10;;;;;;6010768;29;20379;-72
2022/04/02 12:22:26;;;;;;;4.85;3.35;;;5.70;72.90;;;;;;6016658;29;20046;-73
2022/04/02 12:25:27;;;;;;;5.05;2.72;;;5.60;72.80;;;;;;6002714;29;20084;-72
2022/04/02 12:28:29;;;;;;;6.07;3.60;;;5.70;73.00;;;;;;6020478;29;20045;-72
2022/04/02 12:31:31;;;;;;;9.00;4.72;;;5.60;73.00;;;;;;6018752;29;20072;-72
2022/04/02 12:34:34;;;;;;;6.43;3.35;;;5.60;72.80;;;;;;6020209;29;20076;-72
2022/04/02 12:37:48;;;;;;;8.80;3.75;;;5.60;72.90;;;;;;6018398;29;20041;-73
2022/04/02 12:40:50;;;;;;;7.43;4.15;;;5.70;73.00;;;;;;6016174;29;20440;-73
2022/04/02 12:43:57;;;;;;;6.70;3.85;;;5.70;73.00;;;;;;5999273;29;20100;-73
2022/04/02 12:47:24;;;;;;;5.85;3.20;;;5.70;72.80;;;;;;6000084;29;20038;-73
2022/04/02 12:50:26;;;;;;;6.43;3.63;;;5.80;72.90;;;;;;6011428;29;20432;-72
2022/04/02 12:53:39;;;;;;;4.65;2.83;;;5.80;72.80;;;;;;6018559;29;20046;-73
2022/04/02 12:56:41;;;;;;;4.85;2.80;;;5.80;72.30;;;;;;5998793;29;20042;-72
2022/04/02 12:59:44;;;;;;;5.30;2.67;;;5.80;72.10;;;;;;6014158;29;20465;-72
2022/04/02 13:02:49;;;;;;;6.28;3.13;;;5.80;72.00;;;;;;6012673;29;20073;-73
2022/04/02 13:05:52;;;;;;;5.95;3.75;;;5.70;71.70;;;;;;5999454;29;20086;-73
2022/04/02 13:09:12;;;;;;;7.28;3.65;;;5.90;71.70;;;;;;6015471;29;20049;-72
2022/04/02 13:12:23;;;;;;;6.43;3.55;;;5.90;71.60;;;;;;5983490;29;20352;-72
2022/04/02 13:15:26;;;;;;;7.93;4.60;;;5.90;71.50;;;;;;6018188;29;20109;-72
2022/04/02 13:21:56;;;;;;;6.85;4.30;;;6.00;71.50;;;;;;5998618;29;20065;-73
2022/04/02 13:24:59;;;;;;;7.97;3.43;;;6.10;71.50;;;;;;5999637;29;20527;-72
2022/04/02 13:28:19;;;;;;;9.23;3.88;;;6.20;71.30;;;;;;5995128;29;20271;-72
2022/04/02 13:31:27;;;;;;;6.10;3.50;;;6.30;71.10;;;;;;6013951;29;20060;-73
2022/04/02 13:34:46;;;;;;;7.43;4.13;;;6.40;70.70;;;;;;5998975;29;20045;-72
2022/04/02 13:38:25;;;;;;;6.18;3.20;;;6.40;70.00;;;;;;5981886;29;20034;-72
2022/04/02 13:41:31;;;;;;;10.38;5.15;;;6.40;69.70;;;;;;5948008;29;20137;-73
2022/04/02 13:44:42;;;;;;;6.03;3.30;;;6.30;69.50;;;;;;5968316;29;20378;-72
2022/04/02 13:47:50;;;;;;;11.65;3.90;;;6.30;69.10;;;;;;5964770;29;20359;-73
2022/04/02 13:51:02;;;;;;;6.35;3.67;;;6.40;69.10;;;;;;5949201;29;20138;-71
2022/04/02 13:54:25;;;;;;;6.25;3.67;;;6.40;68.90;;;;;;5968357;29;20076;-71
2022/04/02 13:57:32;;;;;;;7.97;4.60;;;6.40;68.90;;;;;;5965592;29;20072;-72
2022/04/02 14:00:42;;;;;;;8.07;4.38;;;6.40;68.90;;;;;;5964519;29;20110;-71
2022/04/02 14:03:53;;;;;;;5.22;3.60;;;6.50;68.90;;;;;;5952271;29;20161;-71
2022/04/02 14:06:58;;;;;;;5.20;3.22;;;6.50;68.40;;;;;;5966006;29;20049;-71
2022/04/02 14:10:08;;;;;;;6.43;3.95;;;6.50;68.00;;;;;;5957018;29;20138;-72
2022/04/02 14:13:24;;;;;;;6.18;3.50;;;6.50;68.10;;;;;;5991219;29;20461;-70
2022/04/02 14:16:30;;;;;;;7.53;4.13;;;6.60;67.90;;;;;;5991905;29;20049;-70
2022/04/02 14:19:46;;;;;;;6.82;4.38;;;6.60;67.80;;;;;;6013500;29;20116;-72
2022/04/02 14:23:08;;;;;;;8.52;4.13;;;6.70;67.50;;;;;;5995602;29;20429;-72
2022/04/02 14:26:24;;;;;;;8.05;4.20;;;6.70;67.60;;;;;;6018595;29;20379;-71
2022/04/02 14:29:25;;;;;;;8.60;4.22;;;6.60;67.60;;;;;;5998437;29;20048;-71
2022/04/02 14:32:58;;;;;;;5.32;3.05;;;6.60;67.80;;;;;;5999007;29;20033;-70
2022/04/02 14:36:52;;;;;;;4.80;3.15;;;6.70;67.90;;;;;;6013909;29;20490;-70
2022/04/02 14:40:02;;;;;;;6.22;3.40;;;6.80;67.90;;;;;;5897081;29;20133;-70
2022/04/02 14:43:22;;;;;;;5.45;3.60;;;6.80;67.10;;;;;;5916684;29;20043;-72
2022/04/02 14:46:57;;;;;;;4.82;2.97;;;6.80;67.20;;;;;;5912849;29;20028;-71
2022/04/02 14:50:16;;;;;;;7.57;3.55;;;6.80;67.50;;;;;;5915660;29;20089;-70
2022/04/02 14:53:32;;;;;;;6.75;4.15;;;6.90;67.00;;;;;;5916044;29;20046;-70
2022/04/02 14:56:57;;;;;;;6.70;3.83;;;6.80;66.90;;;;;;5899740;29;20044;-70
2022/04/02 15:00:35;;;;;;;6.18;4.07;;;6.80;67.10;;;;;;5912696;29;20477;-71
2022/04/02 15:04:17;;;;;;;5.72;2.97;;;6.80;67.20;;;;;;5897979;29;20148;-71
2022/04/02 15:07:57;;;;;;;6.30;3.40;;;6.80;67.40;;;;;;5866235;30;20118;-71
2022/04/02 15:11:00;;;;;;;7.25;4.40;;;6.80;67.70;;;;;;5851846;30;20064;-72
2022/04/02 15:14:11;;;;;;;6.90;3.72;;;6.90;67.70;;;;;;5895753;30;20058;-71
2022/04/02 15:17:39;;;;;;;7.63;3.83;;;7.00;67.30;;;;;;5918452;29;20039;-69
2022/04/02 15:20:41;;;;;;;6.60;3.72;;;7.10;67.00;;;;;;5893520;30;20040;-70
2022/04/02 15:24:00;;;;;;;4.40;3.03;;;7.20;66.80;;;;;;5915814;30;20458;-71
2022/04/02 15:27:01;;;;;;;8.27;4.13;;;7.30;66.50;;;;;;5908747;29;20514;-71
2022/04/02 15:30:03;;;;;;;7.50;3.97;;;7.30;66.10;;;;;;5911461;29;20046;-70
2022/04/02 15:33:26;;;;;;;5.50;3.50;;;7.30;65.90;;;;;;5911145;29;20112;-71
2022/04/02 15:36:30;;;;;;;5.50;3.17;;;7.20;66.00;;;;;;5908513;29;20032;-71
2022/04/02 15:39:33;;;;;;;7.07;3.28;;;7.20;65.80;;;;;;5911117;29;20127;-72
2022/04/02 15:42:45;;;;;;;4.90;2.97;;;7.20;66.00;;;;;;5926034;29;20152;-70
2022/04/02 15:45:46;;;;;;;7.15;3.50;;;7.20;65.80;;;;;;6011984;29;20046;-70
2022/04/02 15:49:30;;;;;;;5.97;3.38;;;7.20;65.70;;;;;;6012685;29;20112;-72
2022/04/02 15:52:31;;;;;;;5.65;2.97;;;7.10;65.60;;;;;;5883473;30;20747;-70
2022/04/02 15:55:56;;;;;;;12.05;3.70;;;7.00;65.60;;;;;;5921509;29;20542;-71
2022/04/02 15:59:22;;;;;;;6.07;2.90;;;7.00;66.10;;;;;;5910774;29;20052;-70
2022/04/02 16:02:43;;;;;;;6.05;3.15;;;7.00;66.00;;;;;;5910850;29;20043;-71
2022/04/02 16:05:44;;;;;;;6.35;3.20;;;7.00;65.90;;;;;;5925574;29;20048;-70
2022/04/02 16:08:58;;;;;;;5.55;3.20;;;7.00;66.30;;;;;;5928575;29;20155;-69
2022/04/02 16:12:26;;;;;;;4.28;2.90;;;7.10;66.60;;;;;;5908873;30;20704;-71
2022/04/02 16:15:27;;;;;;;5.65;3.60;;;7.00;66.40;;;;;;5909114;30;20147;-69
2022/04/02 16:18:29;;;;;;;6.57;3.60;;;7.00;66.30;;;;;;5904639;30;20119;-71
2022/04/02 16:21:30;;;;;;;4.38;2.13;;;7.00;66.50;;;;;;5907852;30;20047;-69
2022/04/02 16:24:31;;;;;;;6.05;3.10;;;6.90;66.50;;;;;;5908938;30;20044;-72
2022/04/02 16:27:32;;;;;;;4.20;3.08;;;7.10;66.90;;;;;;5993255;29;20053;-71
2022/04/02 16:30:33;;;;;;;5.32;2.42;;;6.90;66.60;;;;;;6005420;29;20102;-71
2022/04/02 16:33:34;;;;;;;6.13;3.70;;;6.90;66.70;;;;;;6002415;29;20041;-70